Modoc, Kansas
Current Conditions -  °F | °C
As of 4:54 PM on Friday 19 Dec 2014 (Local Time) from KGCK Reporting Station
Clear Clear  
Wind Chill: 38°   Ceiling: Unl
Heat Index: 43°   Visibility: 10mi
Dew Point: 33°   Wind: 8mph
Humidity: 68%   Direction: 220°SW
Pressure: 30.1"   Gusts: NA
Location:  38.4788°N, 101.052°W
Report Text: KGCK 192254Z 22007KT 10SM CLR 06/01 A3010 RMK AO2 SLP206 T00610006
Loading
Personal Weather Stations






























Interactive Weather Map New forecast layout! Learn more

10-Day Weather Forecast

Advertisements
Track Severe Weather on mobile